createdAt,value
2024-05-09T00:00:40.764Z,6.90
2024-05-09T00:03:10.426Z,6.90
2024-05-09T00:05:40.934Z,7.00
2024-05-09T00:08:09.720Z,7.00
2024-05-09T00:10:39.069Z,7.20
2024-05-09T00:13:08.046Z,7.20
2024-05-09T00:15:36.265Z,7.30
2024-05-09T00:18:05.849Z,7.40
2024-05-09T00:20:38.608Z,7.50
2024-05-09T00:23:12.687Z,7.40
2024-05-09T00:25:44.384Z,7.40
2024-05-09T00:28:12.836Z,7.50
2024-05-09T00:30:40.663Z,7.50
2024-05-09T00:33:09.449Z,7.60
2024-05-09T00:35:38.066Z,7.70
2024-05-09T00:38:05.323Z,7.70
2024-05-09T00:40:40.524Z,7.70
2024-05-09T00:43:10.676Z,7.80
2024-05-09T00:45:38.004Z,7.90
2024-05-09T00:48:09.081Z,7.90
2024-05-09T00:50:40.473Z,8.00
2024-05-09T00:53:10.047Z,8.00
2024-05-09T00:55:38.990Z,8.00
2024-05-09T00:58:07.577Z,8.00
2024-05-09T01:00:39.254Z,8.10
2024-05-09T01:03:13.232Z,8.10
2024-05-09T01:05:42.875Z,8.20
2024-05-09T01:08:11.209Z,8.30
2024-05-09T01:10:38.431Z,8.30
2024-05-09T01:13:06.293Z,8.30
2024-05-09T01:15:34.233Z,8.30
2024-05-09T01:18:07.320Z,8.30
2024-05-09T01:20:41.278Z,8.40
2024-05-09T01:23:11.843Z,8.40
2024-05-09T01:25:39.424Z,8.40
2024-05-09T01:28:06.822Z,8.40
2024-05-09T01:30:36.320Z,8.40
2024-05-09T01:33:07.295Z,8.50
2024-05-09T01:35:36.453Z,8.50
2024-05-09T01:38:03.797Z,8.50
2024-05-09T01:40:38.305Z,8.50
2024-05-09T01:43:11.390Z,8.60
2024-05-09T01:45:40.061Z,8.70
2024-05-09T01:48:08.469Z,8.60
2024-05-09T01:50:39.850Z,8.70
2024-05-09T01:53:14.781Z,8.70
2024-05-09T01:55:42.762Z,8.70
2024-05-09T01:58:10.519Z,8.60
2024-05-09T02:00:41.281Z,8.60
2024-05-09T02:03:14.334Z,8.60
2024-05-09T02:05:45.455Z,8.60
2024-05-09T02:08:18.379Z,8.70
2024-05-09T02:10:47.302Z,8.60
2024-05-09T02:13:14.735Z,8.50
2024-05-09T02:15:41.788Z,8.50
2024-05-09T02:18:09.974Z,8.50
2024-05-09T02:20:44.039Z,8.40
2024-05-09T02:23:11.956Z,8.40
2024-05-09T02:25:40.460Z,8.30
2024-05-09T02:28:07.699Z,8.20
2024-05-09T02:30:39.640Z,8.10
2024-05-09T02:33:11.697Z,8.10
2024-05-09T02:35:40.873Z,8.00
2024-05-09T02:38:09.282Z,7.90
2024-05-09T02:40:38.662Z,7.90
2024-05-09T02:43:08.407Z,7.70
2024-05-09T02:45:36.779Z,7.60
2024-05-09T02:48:04.149Z,7.50
2024-05-09T02:50:37.841Z,7.50
2024-05-09T02:53:13.796Z,7.40
2024-05-09T02:55:42.170Z,7.30
2024-05-09T02:58:10.103Z,7.20
2024-05-09T03:00:40.821Z,7.10
2024-05-09T03:03:14.494Z,7.10
2024-05-09T03:05:45.792Z,7.00
2024-05-09T03:08:13.248Z,7.00
2024-05-09T03:10:40.382Z,6.90
2024-05-09T03:13:08.182Z,6.90
2024-05-09T03:15:35.316Z,6.90
2024-05-09T03:18:02.850Z,6.70
2024-05-09T03:20:34.250Z,6.70
2024-05-09T03:23:03.512Z,6.70
2024-05-09T03:25:30.893Z,6.50
2024-05-09T03:27:57.860Z,6.50
2024-05-09T03:30:36.632Z,6.40
2024-05-09T03:33:17.897Z,6.40
2024-05-09T03:35:47.350Z,6.30
2024-05-09T03:38:14.738Z,6.30
2024-05-09T03:40:49.615Z,6.20
2024-05-09T03:43:18.023Z,6.30
2024-05-09T03:45:46.772Z,6.30
2024-05-09T03:48:14.199Z,6.30
2024-05-09T03:50:41.678Z,6.30
2024-05-09T03:53:13.500Z,6.30
2024-05-09T03:55:40.775Z,6.40
2024-05-09T03:58:08.478Z,6.40
2024-05-09T04:00:39.187Z,6.40
2024-05-09T04:03:10.352Z,6.40
2024-05-09T04:05:40.551Z,6.40
2024-05-09T04:08:08.844Z,6.30
2024-05-09T04:10:38.324Z,6.40
2024-05-09T04:13:05.660Z,6.30
2024-05-09T04:15:32.896Z,6.40
2024-05-09T04:18:00.760Z,6.30
2024-05-09T04:20:36.272Z,6.40
2024-05-09T04:23:07.195Z,6.40
2024-05-09T04:25:35.062Z,6.50
2024-05-09T04:28:02.210Z,6.50
2024-05-09T04:30:37.165Z,6.50
2024-05-09T04:33:09.213Z,6.70
2024-05-09T04:35:38.548Z,6.80
2024-05-09T04:38:06.163Z,6.80
2024-05-09T04:40:36.193Z,6.90
2024-05-09T04:43:05.476Z,6.90
2024-05-09T04:45:32.732Z,7.00
2024-05-09T04:47:59.996Z,7.20
2024-05-09T04:50:35.147Z,7.30
2024-05-09T04:53:06.127Z,7.40
2024-05-09T04:55:36.241Z,7.50
2024-05-09T04:58:03.367Z,7.60
2024-05-09T05:00:36.048Z,7.70
2024-05-09T05:03:13.204Z,7.80
2024-05-09T05:05:43.105Z,7.90
2024-05-09T05:08:11.119Z,8.10
2024-05-09T05:10:38.257Z,8.20
2024-05-09T05:13:20.744Z,8.30
2024-05-09T05:15:51.203Z,8.40
2024-05-09T05:18:18.773Z,8.50
2024-05-09T05:20:46.194Z,8.70
2024-05-09T05:23:15.614Z,8.80
2024-05-09T05:25:43.095Z,9.00
2024-05-09T05:28:10.574Z,9.10
2024-05-09T05:30:38.306Z,9.20
2024-05-09T05:33:07.288Z,9.30
2024-05-09T05:35:35.901Z,9.50
2024-05-09T05:38:03.978Z,9.60
2024-05-09T05:40:36.120Z,9.70
2024-05-09T05:43:09.892Z,9.80
2024-05-09T05:45:37.441Z,10.00
2024-05-09T05:48:06.148Z,10.10
2024-05-09T05:53:19.680Z,10.30
2024-05-09T05:55:46.736Z,10.40
2024-05-09T05:58:14.926Z,10.40
2024-05-09T06:00:42.762Z,10.50
2024-05-09T06:03:12.110Z,10.60
2024-05-09T06:05:40.612Z,10.70
2024-05-09T06:08:08.948Z,10.80
2024-05-09T06:10:39.435Z,10.90
2024-05-09T06:13:12.268Z,11.00
2024-05-09T06:15:43.451Z,11.10
2024-05-09T06:18:12.270Z,11.20
2024-05-09T06:20:42.339Z,11.30
2024-05-09T06:23:10.697Z,11.40
2024-05-09T06:25:38.227Z,11.50
2024-05-09T06:28:05.753Z,11.60
2024-05-09T06:33:03.715Z,11.70
2024-05-09T06:35:31.191Z,11.80
2024-05-09T06:37:58.378Z,11.90
2024-05-09T06:40:29.873Z,11.90
2024-05-09T06:43:03.443Z,12.10
2024-05-09T06:45:33.088Z,12.20
2024-05-09T06:48:00.438Z,12.20
2024-05-09T06:50:35.449Z,12.30
2024-05-09T06:53:04.817Z,12.40
2024-05-09T06:55:31.784Z,12.50
2024-05-09T06:57:58.751Z,12.70
2024-05-09T07:00:34.559Z,12.70
2024-05-09T07:03:14.703Z,12.70
2024-05-09T07:05:44.714Z,12.70
2024-05-09T07:08:13.524Z,12.90
2024-05-09T07:10:40.680Z,12.90
2024-05-09T07:13:11.982Z,12.90
2024-05-09T07:15:39.659Z,13.10
2024-05-09T07:18:17.775Z,13.20
2024-05-09T07:20:46.331Z,13.30
2024-05-09T07:23:13.572Z,13.40
2024-05-09T07:25:41.666Z,13.50
2024-05-09T07:28:14.129Z,13.60
2024-05-09T07:30:41.590Z,13.60
2024-05-09T07:33:08.837Z,13.70
2024-05-09T07:35:36.064Z,13.70
2024-05-09T07:38:03.158Z,13.80
2024-05-09T07:40:35.886Z,13.80
2024-05-09T07:43:05.001Z,13.80
2024-05-09T07:45:48.216Z,13.80
2024-05-09T07:52:37.908Z,14.00
2024-05-09T07:53:47.545Z,14.10
2024-05-09T07:56:18.946Z,14.10
2024-05-09T07:58:47.335Z,14.20
2024-05-09T08:01:14.607Z,14.30
2024-05-09T08:03:41.762Z,14.30
2024-05-09T08:06:08.793Z,14.40
2024-05-09T08:08:35.746Z,14.40
2024-05-09T08:11:03.141Z,14.50
2024-05-09T08:13:30.274Z,14.60
2024-05-09T08:15:57.240Z,14.50
2024-05-09T08:18:24.400Z,14.60
2024-05-09T08:20:52.241Z,14.70
2024-05-09T08:23:19.214Z,14.70
2024-05-09T08:25:46.212Z,14.70
2024-05-09T08:28:13.414Z,14.90
2024-05-09T08:30:40.695Z,15.00
2024-05-09T08:33:08.161Z,15.00
2024-05-09T08:35:35.736Z,15.00
2024-05-09T08:38:03.814Z,15.30
2024-05-09T08:40:36.186Z,15.20
2024-05-09T08:43:10.491Z,15.20
2024-05-09T08:45:44.708Z,15.30
2024-05-09T08:48:15.298Z,15.30
2024-05-09T08:50:43.930Z,15.30
2024-05-09T08:53:12.072Z,15.30
2024-05-09T08:55:42.673Z,15.60
2024-05-09T08:58:15.694Z,15.80
2024-05-09T09:00:44.407Z,15.80
2024-05-09T09:03:26.594Z,15.80
2024-05-09T09:06:07.371Z,15.90
2024-05-09T09:08:34.361Z,15.80
2024-05-09T09:11:01.379Z,15.80
2024-05-09T09:13:28.465Z,15.70
2024-05-09T09:15:58.894Z,15.70
2024-05-09T09:18:27.826Z,15.90
2024-05-09T09:20:55.435Z,15.80
2024-05-09T09:23:22.560Z,15.90
2024-05-09T09:25:50.433Z,15.90
2024-05-09T09:28:17.683Z,16.00
2024-05-09T09:30:45.839Z,16.10
2024-05-09T09:33:13.115Z,16.20
2024-05-09T09:35:42.327Z,16.10
2024-05-09T09:38:10.805Z,16.00
2024-05-09T09:40:46.663Z,16.00
2024-05-09T09:43:21.680Z,16.10
2024-05-09T09:45:51.959Z,16.10
2024-05-09T09:48:20.409Z,16.20
2024-05-09T09:50:49.004Z,16.30
2024-05-09T09:53:16.627Z,16.30
2024-05-09T09:55:43.954Z,16.40
2024-05-09T09:58:14.085Z,16.50
2024-05-09T10:00:42.025Z,16.60
2024-05-09T10:03:09.467Z,16.40
2024-05-09T10:05:37.461Z,16.40
2024-05-09T10:08:10.565Z,16.30
2024-05-09T10:10:38.306Z,16.30
2024-05-09T10:13:06.062Z,16.30
2024-05-09T10:15:48.122Z,16.40
2024-05-09T10:18:15.545Z,16.50
2024-05-09T10:20:46.247Z,16.60
2024-05-09T10:23:27.484Z,16.60
2024-05-09T10:26:04.797Z,16.70
2024-05-09T10:28:33.525Z,16.60
2024-05-09T10:31:13.067Z,16.70
2024-05-09T10:33:49.972Z,16.70
2024-05-09T10:36:25.334Z,16.70
2024-05-09T10:38:53.858Z,16.80
2024-05-09T10:41:22.666Z,16.90
2024-05-09T10:43:50.575Z,16.90
2024-05-09T10:46:19.123Z,16.90
2024-05-09T10:48:47.834Z,17.10
2024-05-09T10:51:16.486Z,17.20
2024-05-09T10:53:45.086Z,17.20
2024-05-09T10:56:13.964Z,17.20
2024-05-09T10:58:41.106Z,17.30
2024-05-09T11:01:09.715Z,17.30
2024-05-09T11:03:37.922Z,17.30
2024-05-09T11:06:06.371Z,17.30
2024-05-09T11:08:35.166Z,17.20
2024-05-09T11:11:07.193Z,17.20
2024-05-09T11:13:36.346Z,17.40
2024-05-09T11:16:04.951Z,17.50
2024-05-09T11:18:36.557Z,17.50
2024-05-09T11:21:12.583Z,17.40
2024-05-09T11:23:40.276Z,17.50
2024-05-09T11:26:07.508Z,17.70
2024-05-09T11:28:36.249Z,17.80
2024-05-09T11:31:10.398Z,18.00
2024-05-09T11:33:43.855Z,18.10
2024-05-09T11:36:11.996Z,18.20
2024-05-09T11:38:42.211Z,18.30
2024-05-09T11:41:09.289Z,18.40
2024-05-09T11:43:36.298Z,18.80
2024-05-09T11:46:04.096Z,19.00
2024-05-09T11:48:31.691Z,19.10
2024-05-09T11:50:58.970Z,19.30
2024-05-09T11:53:25.952Z,19.60
2024-05-09T11:55:53.268Z,19.70
2024-05-09T11:58:21.472Z,19.70
2024-05-09T12:00:48.819Z,19.70
2024-05-09T12:03:16.638Z,19.70
2024-05-09T12:05:44.072Z,20.00
2024-05-09T12:08:11.450Z,20.10
2024-05-09T12:10:38.577Z,20.30
2024-05-09T12:13:07.028Z,20.60
2024-05-09T12:15:37.762Z,20.60
2024-05-09T12:18:06.496Z,20.50
2024-05-09T12:20:37.977Z,20.60
2024-05-09T12:23:08.917Z,20.70
2024-05-09T12:25:37.601Z,20.70
2024-05-09T12:28:04.946Z,20.90
2024-05-09T12:30:37.526Z,20.70
2024-05-09T12:33:12.525Z,20.70
2024-05-09T12:35:41.393Z,20.70
2024-05-09T12:38:09.233Z,20.90
2024-05-09T12:40:38.643Z,20.90
2024-05-09T12:43:08.445Z,21.10
2024-05-09T12:45:36.823Z,21.30
2024-05-09T12:48:06.931Z,21.30
2024-05-09T12:50:34.846Z,21.20
2024-05-09T12:53:03.179Z,21.40
2024-05-09T12:55:37.126Z,21.40
2024-05-09T12:58:11.827Z,21.60
2024-05-09T13:00:39.234Z,21.90
2024-05-09T13:03:06.811Z,22.00
2024-05-09T13:05:34.078Z,22.10
2024-05-09T13:08:01.402Z,22.40
2024-05-09T13:10:32.237Z,22.30
2024-05-09T13:13:01.507Z,22.50
2024-05-09T13:15:31.008Z,22.60
2024-05-09T13:18:02.039Z,22.40
2024-05-09T13:20:33.902Z,22.60
2024-05-09T13:23:04.882Z,22.80
2024-05-09T13:25:34.364Z,22.60
2024-05-09T13:28:01.652Z,22.80
2024-05-09T13:30:37.385Z,22.70
2024-05-09T13:33:07.701Z,22.60
2024-05-09T13:35:35.750Z,22.80
2024-05-09T13:38:03.854Z,22.70
2024-05-09T13:40:34.630Z,22.70
2024-05-09T13:43:04.823Z,22.80
2024-05-09T13:45:32.652Z,23.20
2024-05-09T13:48:00.319Z,22.90
2024-05-09T13:50:33.612Z,23.10
2024-05-09T13:53:06.551Z,22.80
2024-05-09T13:55:35.127Z,23.10
2024-05-09T13:58:02.955Z,22.80
2024-05-09T14:00:42.052Z,23.20
2024-05-09T14:03:14.806Z,23.20
2024-05-09T14:05:42.287Z,23.10
2024-05-09T14:08:09.583Z,23.10
2024-05-09T14:10:43.207Z,23.20
2024-05-09T14:13:10.507Z,23.20
2024-05-09T14:15:37.736Z,23.50
2024-05-09T14:18:05.554Z,23.20
2024-05-09T14:20:33.038Z,23.00
2024-05-09T14:23:00.932Z,23.30
2024-05-09T14:25:35.216Z,23.60
2024-05-09T14:28:04.134Z,23.70
2024-05-09T14:30:36.737Z,24.00
2024-05-09T14:33:06.512Z,24.00
2024-05-09T14:35:34.520Z,23.40
2024-05-09T14:38:01.610Z,23.50
2024-05-09T14:43:02.086Z,22.80
2024-05-09T14:45:29.714Z,23.10
2024-05-09T14:47:56.821Z,23.40
2024-05-09T14:50:32.328Z,23.50
2024-05-09T14:53:03.466Z,23.70
2024-05-09T14:55:30.819Z,23.60
2024-05-09T14:57:58.041Z,23.50
2024-05-09T15:00:29.069Z,23.20
2024-05-09T15:03:00.788Z,22.90
2024-05-09T15:05:27.891Z,22.80
2024-05-09T15:07:56.673Z,22.70
2024-05-09T15:10:31.552Z,22.70
2024-05-09T15:13:02.251Z,22.80
2024-05-09T15:15:29.258Z,22.70
2024-05-09T15:17:56.425Z,22.80
2024-05-09T15:20:31.226Z,22.70
2024-05-09T15:23:02.753Z,22.70
2024-05-09T15:25:30.021Z,22.90
2024-05-09T15:28:00.776Z,22.80
2024-05-09T15:30:31.448Z,22.50
2024-05-09T15:33:01.493Z,22.50
2024-05-09T15:35:29.101Z,22.50
2024-05-09T15:37:56.309Z,22.70
2024-05-09T15:40:34.482Z,22.80
2024-05-09T15:43:06.557Z,22.60
2024-05-09T15:45:34.248Z,22.60
2024-05-09T15:48:02.812Z,22.30
2024-05-09T15:50:37.103Z,22.00
2024-05-09T15:53:08.313Z,22.00
2024-05-09T15:55:36.105Z,22.00
2024-05-09T15:58:04.312Z,21.70
2024-05-09T16:00:37.801Z,21.70
2024-05-09T16:03:09.132Z,21.80
2024-05-09T16:05:37.081Z,21.80
2024-05-09T16:08:04.626Z,21.80
2024-05-09T16:10:33.093Z,21.70
2024-05-09T16:13:02.367Z,21.70
2024-05-09T16:15:30.322Z,21.40
2024-05-09T16:17:57.599Z,21.20
2024-05-09T16:20:34.341Z,21.10
2024-05-09T16:23:07.124Z,21.10
2024-05-09T16:25:34.088Z,21.00
2024-05-09T16:28:01.629Z,20.90
2024-05-09T16:30:34.546Z,21.00
2024-05-09T16:33:04.427Z,20.90
2024-05-09T16:35:32.121Z,20.70
2024-05-09T16:38:02.405Z,20.70
2024-05-09T16:40:37.007Z,20.50
2024-05-09T16:43:07.514Z,20.20
2024-05-09T16:45:35.088Z,20.10
2024-05-09T16:48:03.048Z,20.10
2024-05-09T16:50:33.919Z,20.00
2024-05-09T16:53:03.220Z,19.80
2024-05-09T16:55:30.621Z,19.70
2024-05-09T16:57:58.423Z,19.50
2024-05-09T17:00:35.676Z,19.50
2024-05-09T17:03:09.740Z,19.40
2024-05-09T17:05:37.629Z,19.30
2024-05-09T17:08:05.190Z,19.30
2024-05-09T17:10:34.365Z,19.30
2024-05-09T17:13:07.245Z,19.30
2024-05-09T17:15:36.668Z,19.30
2024-05-09T17:18:05.162Z,19.30
2024-05-09T17:20:35.588Z,19.20
2024-05-09T17:23:06.012Z,19.20
2024-05-09T17:25:33.810Z,19.20
2024-05-09T17:28:07.276Z,19.10
2024-05-09T17:30:37.691Z,19.10
2024-05-09T17:33:08.921Z,19.10
2024-05-09T17:35:36.952Z,19.00
2024-05-09T17:38:06.092Z,19.00
2024-05-09T17:40:36.216Z,18.90
2024-05-09T17:43:06.414Z,18.80
2024-05-09T17:45:34.934Z,18.70
2024-05-09T17:48:02.666Z,18.70
2024-05-09T17:50:35.333Z,18.50
2024-05-09T17:53:07.784Z,18.50
2024-05-09T17:55:35.506Z,18.30
2024-05-09T17:58:03.329Z,18.20
2024-05-09T18:00:37.791Z,18.10
2024-05-09T18:03:09.003Z,18.00
2024-05-09T18:05:37.315Z,17.90
2024-05-09T18:08:06.301Z,17.70
2024-05-09T18:10:37.595Z,17.60
2024-05-09T18:13:08.288Z,17.50
2024-05-09T18:15:36.016Z,17.40
2024-05-09T18:18:04.001Z,17.20
2024-05-09T18:20:40.875Z,17.10
2024-05-09T18:23:12.187Z,16.90
2024-05-09T18:25:39.200Z,16.70
2024-05-09T18:28:06.866Z,16.60
2024-05-09T18:30:36.531Z,16.30
2024-05-09T18:33:06.728Z,16.00
2024-05-09T18:35:35.418Z,15.80
2024-05-09T18:38:03.010Z,15.60
2024-05-09T18:40:34.569Z,15.40
2024-05-09T18:43:06.087Z,15.20
2024-05-09T18:45:34.854Z,15.10
2024-05-09T18:48:02.158Z,14.90
2024-05-09T18:50:35.580Z,14.80
2024-05-09T18:53:06.295Z,14.60
2024-05-09T18:55:33.775Z,14.50
2024-05-09T18:58:01.116Z,14.40
2024-05-09T19:00:34.635Z,14.20
2024-05-09T19:03:09.608Z,14.10
2024-05-09T19:05:39.178Z,13.90
2024-05-09T19:08:07.321Z,13.80
2024-05-09T19:10:36.018Z,13.60
2024-05-09T19:13:08.268Z,13.50
2024-05-09T19:15:39.344Z,13.40
2024-05-09T19:18:07.447Z,13.20
2024-05-09T19:20:36.394Z,13.00
2024-05-09T19:23:06.036Z,12.80
2024-05-09T19:25:34.329Z,12.70
2024-05-09T19:28:01.606Z,12.60
2024-05-09T19:30:37.258Z,12.40
2024-05-09T19:33:09.205Z,12.30
2024-05-09T19:35:36.929Z,12.20
2024-05-09T19:38:05.111Z,12.10
2024-05-09T19:40:34.050Z,12.10
2024-05-09T19:43:03.376Z,12.00
2024-05-09T19:45:32.746Z,11.90
2024-05-09T19:48:00.187Z,11.80
2024-05-09T19:50:36.799Z,11.80
2024-05-09T19:53:09.474Z,11.60
2024-05-09T19:55:36.512Z,11.60
2024-05-09T19:58:05.569Z,11.60
2024-05-09T20:00:40.300Z,11.50
2024-05-09T20:03:10.833Z,11.50
2024-05-09T20:05:38.551Z,11.60
2024-05-09T20:08:06.243Z,11.50
2024-05-09T20:10:35.496Z,11.50
2024-05-09T20:13:05.450Z,11.40
2024-05-09T20:15:37.650Z,11.30
2024-05-09T20:18:05.790Z,11.30
2024-05-09T20:20:39.016Z,11.20
2024-05-09T20:23:12.639Z,11.20
2024-05-09T20:25:40.330Z,11.20
2024-05-09T20:28:07.679Z,11.20
2024-05-09T20:30:35.896Z,11.10
2024-05-09T20:33:05.532Z,11.10
2024-05-09T20:35:33.928Z,11.10
2024-05-09T20:38:01.973Z,11.00
2024-05-09T20:40:34.164Z,11.00
2024-05-09T20:43:05.196Z,11.00
2024-05-09T20:45:32.553Z,11.00
2024-05-09T20:48:00.184Z,11.00
2024-05-09T20:50:36.178Z,10.90
2024-05-09T20:53:09.314Z,10.90
2024-05-09T20:55:36.728Z,10.80
2024-05-09T20:58:03.815Z,10.80
2024-05-09T21:00:39.246Z,10.80
2024-05-09T21:03:10.132Z,10.70
2024-05-09T21:05:37.565Z,10.70
2024-05-09T21:08:05.027Z,10.70
2024-05-09T21:10:33.830Z,10.70
2024-05-09T21:13:03.301Z,10.60
2024-05-09T21:15:31.606Z,10.50
2024-05-09T21:17:58.905Z,10.40
2024-05-09T21:20:31.285Z,10.40
2024-05-09T21:23:00.658Z,10.30
2024-05-09T21:25:27.799Z,10.20
2024-05-09T21:27:54.974Z,10.20
2024-05-09T21:30:31.654Z,10.20
2024-05-09T21:33:08.797Z,10.20
2024-05-09T21:35:36.475Z,10.10
2024-05-09T21:38:04.524Z,10.00
2024-05-09T21:40:34.837Z,10.10
2024-05-09T21:43:04.495Z,10.00
2024-05-09T21:45:31.928Z,10.00
2024-05-09T21:47:59.188Z,10.00
2024-05-09T21:50:32.073Z,9.90
2024-05-09T21:53:06.692Z,9.90
2024-05-09T21:55:34.046Z,9.90
2024-05-09T21:58:01.179Z,9.90
2024-05-09T22:00:35.441Z,9.80
2024-05-09T22:03:06.054Z,9.80
2024-05-09T22:05:33.466Z,9.80
2024-05-09T22:08:01.044Z,9.80
2024-05-09T22:10:33.820Z,9.80
2024-05-09T22:13:04.172Z,9.80
2024-05-09T22:15:35.264Z,9.60
2024-05-09T22:18:02.714Z,9.70
2024-05-09T22:20:36.626Z,9.70
2024-05-09T22:23:06.076Z,9.60
2024-05-09T22:25:33.649Z,9.60
2024-05-09T22:28:02.288Z,9.60
2024-05-09T22:32:59.706Z,9.50
2024-05-09T22:35:26.832Z,9.40
2024-05-09T22:37:53.799Z,9.50
2024-05-09T22:40:29.190Z,9.40
2024-05-09T22:43:06.092Z,9.40
2024-05-09T22:45:33.324Z,9.40
2024-05-09T22:48:00.604Z,9.30
2024-05-09T22:50:32.867Z,9.30
2024-05-09T22:53:00.919Z,9.30
2024-05-09T22:55:28.096Z,9.20
2024-05-09T22:57:55.233Z,9.30
2024-05-09T23:00:48.236Z,9.30
2024-05-09T23:03:21.217Z,9.20
2024-05-09T23:05:48.729Z,9.20
2024-05-09T23:08:16.151Z,9.20
2024-05-09T23:10:43.140Z,9.20
2024-05-09T23:13:10.297Z,9.20
2024-05-09T23:15:40.373Z,9.20
2024-05-09T23:18:08.132Z,9.20
2024-05-09T23:20:38.746Z,9.10
2024-05-09T23:23:11.353Z,9.10
2024-05-09T23:25:42.797Z,9.10
2024-05-09T23:28:13.232Z,9.00
2024-05-09T23:30:41.469Z,9.10
2024-05-09T23:33:11.513Z,9.10
2024-05-09T23:35:41.272Z,9.10
2024-05-09T23:38:08.333Z,9.10
2024-05-09T23:40:39.520Z,9.00
2024-05-09T23:43:10.060Z,9.10
2024-05-09T23:45:37.510Z,9.10
2024-05-09T23:48:05.363Z,9.10
2024-05-09T23:50:36.350Z,9.10
2024-05-09T23:53:07.104Z,9.00
2024-05-09T23:55:35.232Z,9.00
2024-05-09T23:58:02.314Z,9.00
